• pl
  • eng

Awiacja
WIADOMOŚCI
ostatnia aktualizacja: 17.04.2020 19:04
Szanowni Państwo,

mając na uwadze sytuację związaną z pandemią wywołaną koronawirusem SARS-Cov-2 oraz w trosce o bezpieczeństwo Państwa oraz naszych pracowników, IMGW-PIB podjął decyzję o przeniesieniu kolejnej edycji Szkoły Meteorologii Lotniczej na przyszły rok. W tej chwili podanie dokładnego terminu szkoły nie jest możliwe, ale jak tylko będzie znany zostanie ogłoszony na naszych stronach internetowych, do których śledzenia serdecznie zapraszamy.

Kliknij na pogrubioną czerwoną nazwę, aby odkodować depeszę. 19:31 28.11.2020
  • WIND
  • SIGNIFICANT EURO
  • SIGNIFICANT
  • SIGMET
  • AIRMET
  • TAF FC
  • TAF FT
  • METAR GG30
  • METAR GG00


METAR EPBY 281830Z 33006KT 9999 FEW019 BKN025 03/02 Q1023=

METAR EPGD 281830Z 01006KT 9999 FEW003 SCT010 BKN016 04/03 Q1022 =

METAR EPKK 281830Z 32006KT 9999 SCT015 BKN049 01/M01 Q1020 =

METAR EPKT 281830Z 30004KT 280V340 9999 BKN037 M01/M02 Q1021 =

METAR EPLB 281830Z 29004KT 9999 OVC026 M00/M00 Q1019 =

METAR EPLL 281830Z 27004KT 9999 -SN OVC030 00/M02 Q1021 =

METAR EPMO 281830Z 31005KT 8000 -SHSN BKN009CB 01/01 Q1020 R08/290195
=

METAR EPPO 281830Z 31006KT 9999 FEW027 BKN043 03/01 Q1024 =

METAR EPRA 281830Z NIL=

METAR EPRZ 281830Z 36004KT 330V030 5000 -SN BR FEW004 OVC014 00/M01
Q1019 =

METAR EPSC 281830Z VRB01KT 1200 0600SE R31/2000N BCFG MIFG BR FEW030
M01/M01 Q1026 =

METAR EPSY 281830Z 35008KT 9999 FEW011 BKN020 01/00 Q1020=

METAR EPWA 281830Z 31006KT 9999 -SHSN BKN008 BKN013CB 01/M00 Q1020
NOSIG=

METAR EPWR 281830Z 34004KT 9999 BKN033 02/M00 Q1024 =

METAR EPZG 281830Z 27003KT 230V330 4000 BR OVC044 01/01 Q1025 =
Awiacja.imgw.pl jest pogodowym serwisem informacyjnym
Instytutu Meteorologii i Gospodarki Wodnej Państwowego Instytutu Badawczego.
Copyright IMGW PIB 2009-2019© Wszelkie prawa zastrzeżone.